BIFZ weather

Forsæti Airport
Forsæti, Southern Region, Iceland

Public forecast

Using degrees Celsius for public forecast. Weather courtesy of forecast.io.

METAR (pilot weather report)

Report is more than 2 hours old.

Closest report is Vestmannaeyjar Airport, 28.1 nm (52.0 km) SSE. Retrieved 2019/04/24 18:00 UTC (6 hours ago):

BIVM 241800Z 09024G35KT 3000 -RA BR BKN004 OVC008 08/08 Q0997

TAF (pilot weather forecast)

Closest forecast is Reykjavik Airport, 36.3 nm (67.3 km) WNW. Retrieved 2019/04/24 21:49 UTC (2 hours ago):

TAF BIRK 241941Z 2421/2521 06008KT 9999 -DZ OVC017 TX16/2515Z TN08/2421Z TEMPO 2421/2423 5000 DZ BR SCT002 OVC012 BECMG 2421/2423 11015KT BECMG 2423/2502 12020G30KT SCT020 BKN070 PROB40 TEMPO 2423/2506 5000 DZ BKN008 OVC016 BECMG 2506/2509 12016KT FEW035 BECMG 2519/2521 BKN022